ΕΜΥ, Εθνική Μετεωρολογική Υπηρεσία - Δελτία Καιρού, Προγνώσεις

ΑΕΡΟΝΑΥΤΙΛΙΑ

GREEK AIRPORTS CODES

TAF LGSR 241700Z 2418/2518 27012KT 9999 FEW010=

EUROPEAN AIRPORTS CODES

LFPO 241800Z 24019KT 210V270 8000 -SHRA FEW015 SCT023CB14/12 Q0999 TEMPO 2500 TSRA BKN025CB=